Latest Weather Observations for Swanbourne

IDW60801

Issued at 11:05 pm WST Friday 25 July 2014 (issued every 30 minutes, with the page automatically refreshed every 10 minutes)

About weather observations | Map of weather stations | Latest weather observations for WA | Other Formats
Station Details ID: 009215 Name: SWANBOURNE Lat: -31.96 Lon: 115.76 Height: 40.96 m
Data from the previous 72 hours. | See also: Recent months at Swanbourne
Date/Time
WST
Temp
°C
App
Temp
°C
Dew
Point
Rel
Hum
%
Delta-T
°C
Wind Press
QNH
hPa
Press
MSL
hPa
Rain
since 9 am
mm
Dir
 
Spd
km/h
Gust
km/h
Spd
kts
Gust
kts
25/11:00pm 16.2 13.8 14.4 89 1.0 NNW 20 39 11 21 - - 5.4
25/10:30pm 15.2 13.3 14.2 94 0.6 N 17 32 9 17 - - 5.2
25/10:00pm 14.4 12.2 13.3 93 0.6 N 17 30 9 16 - - 5.2
25/09:30pm 14.4 11.9 13.4 94 0.6 N 19 32 10 17 - - 5.0
25/09:00pm 14.7 10.1 12.4 86 1.3 N 28 54 15 29 - - 5.0
25/08:58pm 15.1 10.5 12.4 84 1.5 N 28 54 15 29 - - 5.0
25/08:30pm 16.3 14.7 16.0 98 0.2 NNW 19 30 10 16 - - 4.8
25/08:00pm 16.0 12.8 15.2 95 0.5 NNW 26 37 14 20 - - 4.8
25/07:46pm 15.8 12.0 14.7 93 0.6 NNW 28 48 15 26 - - 4.4
25/07:30pm 16.1 12.2 15.5 96 0.3 NNW 30 43 16 23 - - 3.6
25/07:02pm 16.1 12.2 15.5 96 0.3 NNW 30 54 16 29 - - 2.6
25/07:00pm 16.1 12.8 15.1 94 0.6 NNW 26 46 14 25 - - 1.8
25/06:30pm 15.5 12.6 15.0 97 0.3 NNW 24 41 13 22 - - 1.2
25/06:06pm 16.7 12.4 13.2 80 2.0 NNW 28 48 15 26 - - 0.4
25/06:00pm 16.7 14.0 13.4 81 1.9 NNW 20 30 11 16 - - 0.4
25/05:30pm 16.8 11.0 12.7 77 2.3 NNW 35 52 19 28 - - 0.4
25/05:21pm 17.7 12.1 12.2 70 3.0 NNW 33 52 18 28 - - 0.4
25/05:00pm 17.6 13.0 11.2 66 3.5 NNW 26 44 14 24 - - 0.4
25/04:30pm 17.4 13.4 12.9 75 2.5 NNW 26 39 14 21 - - 0.4
25/04:00pm 16.1 8.9 13.0 82 1.7 NNW 43 65 23 35 - - 0.4
25/03:53pm 16.9 11.5 12.8 77 2.3 NNW 33 57 18 31 - - 0.4
25/03:30pm 17.1 12.1 12.2 73 2.7 NNW 30 44 16 24 - - 0.4
25/03:11pm 17.3 12.2 12.0 71 2.9 NNW 30 52 16 28 - - 0.4
25/03:00pm 17.8 13.0 11.6 67 3.4 NNW 28 46 15 25 - - 0.4
25/02:38pm 16.2 11.3 12.7 80 1.9 N 30 52 16 28 - - 0.4
25/02:30pm 16.0 10.8 12.7 81 1.8 NNW 32 48 17 26 - - 0.4
25/02:14pm 17.6 12.2 12.3 71 2.9 NNW 32 52 17 28 - - 0.4
25/02:00pm 17.6 12.4 12.7 73 2.7 NNW 32 43 17 23 - - 0.4
25/01:30pm 18.3 13.6 13.2 72 2.9 NNW 30 43 16 23 - - 0.4
25/01:00pm 15.9 11.4 13.9 88 1.1 N 30 44 16 24 - - 0.4
25/12:30pm 16.9 13.7 13.0 78 2.2 N 22 35 12 19 - - 0.4
25/12:00pm 16.4 12.7 13.9 85 1.4 NNW 26 43 14 23 - - 0.2
25/11:30am 17.8 15.3 13.5 76 2.4 N 19 32 10 17 - - 0.0
25/11:00am 16.3 12.7 13.0 81 1.8 N 24 37 13 20 - - 0.0
25/10:30am 17.1 14.7 12.8 76 2.4 N 17 24 9 13 - - 0.0
25/10:00am 16.3 14.2 13.6 84 1.5 N 17 26 9 14 - - 0.0
25/09:30am 14.4 12.5 13.1 92 0.7 N 15 24 8 13 - - 0.0
25/09:00am 14.5 12.4 12.5 88 1.1 N 15 26 8 14 - - 2.4
25/08:30am 14.2 13.4 13.9 98 0.2 N 11 17 6 9 - - 2.4
25/08:00am 13.4 11.9 13.1 98 0.2 NNE 13 20 7 11 - - 2.4
25/07:30am 13.1 11.9 12.8 98 0.2 NNE 11 17 6 9 - - 2.4
25/07:00am 13.2 11.6 12.9 98 0.2 N 13 24 7 13 - - 2.4
25/06:30am 13.5 12.4 13.2 98 0.2 NNE 11 19 6 10 - - 2.4
25/06:00am 13.5 11.7 13.2 98 0.2 N 15 20 8 11 - - 2.4
25/05:30am 12.9 11.6 12.6 98 0.2 NNE 11 13 6 7 - - 1.4
25/05:00am 13.1 12.3 12.8 98 0.2 NNE 9 15 5 8 - - 1.4
25/04:30am 13.2 12.0 12.9 98 0.2 N 11 19 6 10 - - 1.4
25/04:00am 13.6 12.2 13.3 98 0.2 N 13 26 7 14 - - 1.4
25/03:30am 13.1 11.4 12.6 97 0.3 N 13 19 7 10 - - 1.2
25/03:00am 13.1 11.8 12.5 96 0.3 NNE 11 15 6 8 - - 0.8
25/02:30am 12.8 11.1 12.3 97 0.3 NNE 13 19 7 10 - - 0.8
25/02:00am 12.6 11.2 12.1 97 0.3 NE 11 17 6 9 - - 0.8
25/01:30am 12.7 11.3 12.2 97 0.3 NE 11 17 6 9 - - 0.8
25/01:00am 13.1 12.2 12.6 97 0.3 NE 9 17 5 9 - - 0.8
25/12:30am 13.1 12.1 12.3 95 0.4 NE 9 15 5 8 - - 0.8
25/12:00am 13.4 12.9 12.5 94 0.5 NE 7 11 4 6 - - 0.8
 
Date/Time
WST
Temp
°C
App
Temp
°C
Dew
Point
Rel
Hum
%
Delta-T
°C
Wind Press
QNH
hPa
Press
MSL
hPa
Rain
since 9 am
mm
Dir
 
Spd
km/h
Gust
km/h
Spd
kts
Gust
kts
24/11:30pm 13.7 13.1 12.4 92 0.7 NE 7 9 4 5 - - 0.8
24/11:00pm 14.2 13.6 12.2 88 1.1 NNE 7 11 4 6 - - 0.4
24/10:30pm 14.1 13.1 12.3 89 1.0 NNE 9 13 5 7 - - 0.4
24/10:00pm 13.9 13.0 12.6 92 0.7 NNE 9 13 5 7 - - 0.4
24/09:30pm 13.4 12.9 12.6 95 0.4 NNE 7 9 4 5 - - 0.4
24/09:00pm 13.6 13.1 12.7 94 0.5 NNE 7 11 4 6 - - 0.4
24/08:30pm 13.7 13.2 12.6 93 0.6 NNE 7 9 4 5 - - 0.4
24/08:00pm 14.2 13.7 12.1 87 1.1 NNW 6 7 3 4 - - 0.4
24/07:30pm 14.3 13.6 11.3 82 1.6 NNE 6 6 3 3 - - 0.0
24/07:00pm 13.9 13.1 10.9 82 1.6 NNE 6 7 3 4 - - 0.0
24/06:30pm 13.9 13.1 10.9 82 1.6 N 6 6 3 3 - - 0.0
24/06:00pm 14.3 14.6 10.9 80 1.8 CALM 0 6 0 3 - - 0.0
24/05:30pm 15.4 15.5 10.2 71 2.7 CALM 0 0 0 0 - - 0.0
24/05:00pm 16.9 16.8 10.7 67 3.3 NW 2 4 1 2 - - 0.0
24/04:30pm 17.6 17.0 10.5 63 3.8 WNW 4 6 2 3 - - 0.0
24/04:00pm 18.0 17.5 10.6 62 4.0 W 4 6 2 3 - - 0.0
24/03:30pm 18.4 18.0 11.2 63 3.9 W 4 9 2 5 - - 0.0
24/03:00pm 17.7 16.3 10.8 64 3.7 SSW 9 15 5 8 - - 0.0
24/02:30pm 16.8 15.6 10.4 66 3.4 WNW 7 13 4 7 - - 0.0
24/02:00pm 17.1 15.8 10.0 63 3.8 SW 7 11 4 6 - - 0.0
24/01:30pm 18.1 17.2 11.2 64 3.8 SW 7 11 4 6 - - 0.0
24/01:00pm 18.0 16.5 10.6 62 4.0 SW 9 13 5 7 - - 0.0
24/12:30pm 18.4 17.4 11.0 62 4.0 WSW 7 11 4 6 - - 0.0
24/12:00pm 18.8 18.4 11.1 61 4.2 SE 4 9 2 5 - - 0.0
24/11:30am 18.8 18.7 12.1 65 3.7 SSE 4 9 2 5 - - 0.0
24/11:00am 17.6 16.7 11.4 67 3.4 SE 7 13 4 7 - - 0.0
24/10:30am 16.6 15.2 10.9 69 3.1 SE 9 15 5 8 - - 0.0
24/10:00am 16.0 14.5 11.8 76 2.3 SE 11 17 6 9 - - 0.0
24/09:30am 15.0 14.2 13.0 88 1.1 SE 9 17 5 9 - - 0.0
24/09:00am 14.0 13.1 13.7 98 0.2 ESE 11 17 6 9 - - 6.8
24/08:30am 13.6 12.6 13.3 98 0.2 ESE 11 13 6 7 - - 6.8
24/08:00am 13.3 12.5 13.0 98 0.2 ESE 9 13 5 7 - - 6.8
24/07:30am 13.0 12.1 12.7 98 0.2 ESE 9 11 5 6 - - 6.8
24/07:00am 13.3 12.5 12.8 97 0.3 SSE 9 15 5 8 - - 6.8
24/06:30am 13.6 12.8 12.8 95 0.4 SSE 9 15 5 8 - - 6.8
24/06:00am 14.6 14.0 13.5 93 0.6 S 9 15 5 8 - - 6.8
24/05:30am 15.5 12.9 13.7 89 1.0 SW 20 28 11 15 - - 6.8
24/05:00am 15.8 13.1 14.5 92 0.7 WSW 22 37 12 20 - - 6.8
24/04:30am 16.3 13.2 13.4 83 1.6 W 22 33 12 18 - - 5.6
24/04:00am 16.0 12.9 13.3 84 1.5 W 22 30 12 16 - - 5.6
24/03:30am 15.9 12.9 13.6 86 1.3 W 22 35 12 19 - - 5.6
24/03:00am 15.5 12.4 13.5 88 1.1 W 22 32 12 17 - - 5.6
24/02:30am 15.6 12.9 12.9 84 1.5 W 19 30 10 16 - - 5.2
24/02:00am 16.0 13.1 12.2 78 2.1 W 19 28 10 15 - - 5.0
24/01:30am 16.0 13.1 12.2 78 2.1 W 19 28 10 15 - - 5.0
24/01:00am 15.5 12.5 11.9 79 2.0 W 19 26 10 14 - - 5.0
24/12:30am 15.4 12.3 11.6 78 2.1 W 19 28 10 15 - - 5.0
24/12:00am 15.2 12.2 12.0 81 1.7 W 19 26 10 14 - - 5.0
 
Date/Time
WST
Temp
°C
App
Temp
°C
Dew
Point
Rel
Hum
%
Delta-T
°C
Wind Press
QNH
hPa
Press
MSL
hPa
Rain
since 9 am
mm
Dir
 
Spd
km/h
Gust
km/h
Spd
kts
Gust
kts
23/11:30pm 15.3 11.8 10.9 75 2.3 W 20 30 11 16 - - 5.0
23/11:00pm 14.9 12.2 11.7 81 1.7 W 17 24 9 13 - - 5.0
23/10:30pm 15.0 11.7 10.8 76 2.2 W 19 28 10 15 - - 5.0
23/10:00pm 14.8 11.9 11.0 78 2.0 W 17 22 9 12 - - 5.0
23/09:30pm 15.0 12.0 10.6 75 2.3 W 17 26 9 14 - - 5.0
23/09:00pm 14.6 11.5 10.4 76 2.2 W 17 24 9 13 - - 5.0
23/08:30pm 14.6 11.9 10.2 75 2.3 W 15 22 8 12 - - 5.0
23/08:00pm 14.5 11.3 10.1 75 2.3 W 17 24 9 13 - - 5.0
23/07:30pm 14.3 11.5 10.1 76 2.2 W 15 20 8 11 - - 5.0
23/07:00pm 14.1 11.4 10.3 78 2.0 W 15 20 8 11 - - 5.0
23/06:30pm 13.7 11.3 9.9 78 2.0 W 13 19 7 10 - - 5.0
23/06:00pm 13.4 10.9 9.6 78 1.9 W 13 17 7 9 - - 5.0
23/05:30pm 13.6 11.1 9.6 77 2.1 W 13 19 7 10 - - 5.0
23/05:00pm 14.4 11.4 9.4 72 2.6 W 15 22 8 12 - - 5.0
23/04:30pm 14.7 11.9 9.9 73 2.5 W 15 20 8 11 - - 5.0
23/04:00pm 15.0 12.9 11.0 77 2.1 WNW 13 17 7 9 - - 5.0
23/03:30pm 14.3 12.4 11.8 85 1.3 WNW 13 17 7 9 - - 5.0
23/03:00pm 13.3 10.1 12.0 92 0.7 WNW 20 32 11 17 - - 4.8
23/02:30pm 13.1 11.8 11.2 88 1.0 W 9 19 5 10 - - 4.2
23/02:00pm 14.6 11.5 10.4 76 2.2 NNW 17 24 9 13 - - 0.0
23/01:30pm 15.0 12.8 10.8 76 2.2 NNW 13 26 7 14 - - 0.0
23/01:00pm 15.5 12.6 9.8 69 3.0 N 15 22 8 12 - - 0.0
23/12:30pm 15.4 13.9 10.4 72 2.6 NNW 9 20 5 11 - - 0.0
23/12:00pm 15.4 14.4 10.2 71 2.7 N 6 13 3 7 - - 0.0
23/11:30am 14.5 13.0 9.3 71 2.7 NNE 7 13 4 7 - - 0.0
23/11:00am 14.6 13.5 10.0 74 2.4 NNE 6 11 3 6 - - 0.0
23/10:30am 13.5 11.4 9.9 79 1.9 NE 11 19 6 10 - - 0.0
23/10:00am 11.8 10.6 10.2 90 0.8 NNE 7 15 4 8 - - 0.0
23/09:30am 11.2 10.3 10.6 96 0.3 ENE 6 7 3 4 - - 0.0
23/09:00am 10.7 10.0 10.2 97 0.3 NE 4 6 2 3 - - 15.2
23/08:30am 10.3 9.2 9.8 97 0.3 NNE 6 7 3 4 - - 15.2
23/08:00am 9.9 8.7 9.6 98 0.2 N 6 9 3 5 - - 15.2
23/07:30am 9.5 8.5 9.0 97 0.2 NNE 4 7 2 4 - - 15.2
23/07:00am 9.4 9.2 8.9 97 0.2 CALM 0 0 0 0 - - 15.2
23/06:30am 9.3 8.3 9.0 98 0.1 NNE 4 4 2 2 - - 15.2
23/06:00am 9.3 8.3 8.8 97 0.2 ENE 4 6 2 3 - - 15.2
23/05:30am 9.3 8.7 9.0 98 0.1 NE 2 4 1 2 - - 15.2
23/05:00am 9.5 8.2 9.2 98 0.1 E 6 7 3 4 - - 15.2
23/04:30am 9.7 8.3 9.4 98 0.1 E 7 11 4 6 - - 15.2
23/04:00am 9.7 7.9 9.4 98 0.1 E 9 13 5 7 - - 15.2
23/03:30am 9.5 7.3 9.2 98 0.1 ESE 11 15 6 8 - - 15.2
23/03:00am 9.8 9.3 9.5 98 0.1 E 2 6 1 3 - - 15.2
23/02:30am 9.7 8.5 9.4 98 0.1 ESE 6 11 3 6 - - 15.2
23/02:00am 9.7 8.3 9.4 98 0.1 ESE 7 11 4 6 - - 15.2
23/01:30am 10.0 8.6 9.7 98 0.2 ESE 7 9 4 5 - - 15.0
23/01:00am 10.1 8.4 9.8 98 0.2 SE 9 15 5 8 - - 15.0
23/12:30am 10.2 8.5 9.9 98 0.2 SE 9 15 5 8 - - 15.0
23/12:00am 10.2 8.5 9.9 98 0.2 ESE 9 13 5 7 - - 14.8
 
Date/Time
WST
Temp
°C
App
Temp
°C
Dew
Point
Rel
Hum
%
Delta-T
°C
Wind Press
QNH
hPa
Press
MSL
hPa
Rain
since 9 am
mm
Dir
 
Spd
km/h
Gust
km/h
Spd
kts
Gust
kts
22/11:30pm 10.7 8.0 10.4 98 0.2 SSE 15 26 8 14 - - 14.8

Other Formats:

Comma delimited format used in spreadsheet applications
http://www.bom.gov.au/fwo/IDW60801/IDW60801.94614.axf

JavaScript Object Notation format (JSON) in row-major order
http://www.bom.gov.au/fwo/IDW60801/IDW60801.94614.json